sensor_id;sensor_type;location;lat;lon;timestamp;temperature;humidity
20380;DHT22;10349;48.666;8.948;2024-03-22T00:01:45;7.60;99.90
20380;DHT22;10349;48.666;8.948;2024-03-22T00:04:11;7.60;99.90
20380;DHT22;10349;48.666;8.948;2024-03-22T00:06:38;7.50;99.90
20380;DHT22;10349;48.666;8.948;2024-03-22T00:09:03;7.50;99.90
20380;DHT22;10349;48.666;8.948;2024-03-22T00:11:29;7.50;99.90
20380;DHT22;10349;48.666;8.948;2024-03-22T00:13:54;7.50;99.90
20380;DHT22;10349;48.666;8.948;2024-03-22T00:16:20;7.50;99.90
20380;DHT22;10349;48.666;8.948;2024-03-22T00:18:46;7.40;99.90
20380;DHT22;10349;48.666;8.948;2024-03-22T00:21:11;7.30;99.90
20380;DHT22;10349;48.666;8.948;2024-03-22T00:23:37;7.20;99.90
20380;DHT22;10349;48.666;8.948;2024-03-22T00:26:02;7.10;99.90
20380;DHT22;10349;48.666;8.948;2024-03-22T00:28:28;7.00;99.90
20380;DHT22;10349;48.666;8.948;2024-03-22T00:30:54;6.90;99.90
20380;DHT22;10349;48.666;8.948;2024-03-22T00:33:19;6.90;99.90
20380;DHT22;10349;48.666;8.948;2024-03-22T00:35:45;6.80;99.90
20380;DHT22;10349;48.666;8.948;2024-03-22T00:38:11;6.80;99.90
20380;DHT22;10349;48.666;8.948;2024-03-22T00:40:37;6.90;99.90
20380;DHT22;10349;48.666;8.948;2024-03-22T00:43:02;6.80;99.90
20380;DHT22;10349;48.666;8.948;2024-03-22T00:45:28;6.80;99.90
20380;DHT22;10349;48.666;8.948;2024-03-22T00:47:54;6.80;99.90
20380;DHT22;10349;48.666;8.948;2024-03-22T00:50:19;6.80;99.90
20380;DHT22;10349;48.666;8.948;2024-03-22T00:52:45;6.60;99.90
20380;DHT22;10349;48.666;8.948;2024-03-22T00:55:11;6.60;99.90
20380;DHT22;10349;48.666;8.948;2024-03-22T00:57:36;6.50;99.90
20380;DHT22;10349;48.666;8.948;2024-03-22T01:00:02;6.40;99.90
20380;DHT22;10349;48.666;8.948;2024-03-22T01:02:29;6.30;99.90
20380;DHT22;10349;48.666;8.948;2024-03-22T01:04:55;6.30;99.90
20380;DHT22;10349;48.666;8.948;2024-03-22T01:07:21;6.30;99.90
20380;DHT22;10349;48.666;8.948;2024-03-22T01:09:46;6.30;99.90
20380;DHT22;10349;48.666;8.948;2024-03-22T01:12:12;6.30;99.90
20380;DHT22;10349;48.666;8.948;2024-03-22T01:14:37;6.30;99.90
20380;DHT22;10349;48.666;8.948;2024-03-22T01:17:03;6.30;99.90
20380;DHT22;10349;48.666;8.948;2024-03-22T01:19:29;6.30;99.90
20380;DHT22;10349;48.666;8.948;2024-03-22T01:21:54;6.30;99.90
20380;DHT22;10349;48.666;8.948;2024-03-22T01:24:20;6.20;99.90
20380;DHT22;10349;48.666;8.948;2024-03-22T01:26:46;6.10;99.90
20380;DHT22;10349;48.666;8.948;2024-03-22T01:29:13;6.00;99.90
20380;DHT22;10349;48.666;8.948;2024-03-22T01:31:38;5.90;99.90
20380;DHT22;10349;48.666;8.948;2024-03-22T01:34:04;5.80;99.90
20380;DHT22;10349;48.666;8.948;2024-03-22T01:36:30;5.70;99.90
20380;DHT22;10349;48.666;8.948;2024-03-22T01:38:56;5.70;99.90
20380;DHT22;10349;48.666;8.948;2024-03-22T01:41:21;5.60;99.90
20380;DHT22;10349;48.666;8.948;2024-03-22T01:43:47;5.60;99.90
20380;DHT22;10349;48.666;8.948;2024-03-22T01:46:13;5.70;99.90
20380;DHT22;10349;48.666;8.948;2024-03-22T01:48:39;5.70;99.90
20380;DHT22;10349;48.666;8.948;2024-03-22T01:51:05;5.70;99.90
20380;DHT22;10349;48.666;8.948;2024-03-22T01:53:31;5.60;99.90
20380;DHT22;10349;48.666;8.948;2024-03-22T01:55:58;5.60;99.90
20380;DHT22;10349;48.666;8.948;2024-03-22T01:58:23;5.60;99.90
20380;DHT22;10349;48.666;8.948;2024-03-22T02:00:49;5.60;99.90
20380;DHT22;10349;48.666;8.948;2024-03-22T02:03:15;5.60;99.90
20380;DHT22;10349;48.666;8.948;2024-03-22T02:05:41;5.60;99.90
20380;DHT22;10349;48.666;8.948;2024-03-22T02:08:06;5.50;99.90
20380;DHT22;10349;48.666;8.948;2024-03-22T02:10:32;5.50;99.90
20380;DHT22;10349;48.666;8.948;2024-03-22T02:12:58;5.50;99.90
20380;DHT22;10349;48.666;8.948;2024-03-22T02:15:24;5.50;99.90
20380;DHT22;10349;48.666;8.948;2024-03-22T02:17:49;5.50;99.90
20380;DHT22;10349;48.666;8.948;2024-03-22T02:20:15;5.50;99.90
20380;DHT22;10349;48.666;8.948;2024-03-22T02:22:41;5.40;99.90
20380;DHT22;10349;48.666;8.948;2024-03-22T02:25:06;5.30;99.90
20380;DHT22;10349;48.666;8.948;2024-03-22T02:27:34;5.30;99.90
20380;DHT22;10349;48.666;8.948;2024-03-22T02:29:59;5.30;99.90
20380;DHT22;10349;48.666;8.948;2024-03-22T02:32:25;5.30;99.90
20380;DHT22;10349;48.666;8.948;2024-03-22T02:34:50;5.20;99.90
20380;DHT22;10349;48.666;8.948;2024-03-22T02:37:16;5.20;99.90
20380;DHT22;10349;48.666;8.948;2024-03-22T02:39:42;5.20;99.90
20380;DHT22;10349;48.666;8.948;2024-03-22T02:42:08;5.10;99.90
20380;DHT22;10349;48.666;8.948;2024-03-22T02:44:34;5.10;99.90
20380;DHT22;10349;48.666;8.948;2024-03-22T02:46:59;5.00;99.90
20380;DHT22;10349;48.666;8.948;2024-03-22T02:49:25;5.00;99.90
20380;DHT22;10349;48.666;8.948;2024-03-22T02:51:51;5.00;99.90
20380;DHT22;10349;48.666;8.948;2024-03-22T02:54:16;5.00;99.90
20380;DHT22;10349;48.666;8.948;2024-03-22T02:56:42;5.00;99.90
20380;DHT22;10349;48.666;8.948;2024-03-22T02:59:08;4.90;99.90
20380;DHT22;10349;48.666;8.948;2024-03-22T03:01:33;4.80;99.90
20380;DHT22;10349;48.666;8.948;2024-03-22T03:03:59;4.90;99.90
20380;DHT22;10349;48.666;8.948;2024-03-22T03:06:24;4.90;99.90
20380;DHT22;10349;48.666;8.948;2024-03-22T03:08:50;4.80;99.90
20380;DHT22;10349;48.666;8.948;2024-03-22T03:11:15;4.80;99.90
20380;DHT22;10349;48.666;8.948;2024-03-22T03:13:41;4.80;99.90
20380;DHT22;10349;48.666;8.948;2024-03-22T03:16:07;4.70;99.90
20380;DHT22;10349;48.666;8.948;2024-03-22T03:18:32;4.70;99.90
20380;DHT22;10349;48.666;8.948;2024-03-22T03:20:58;4.70;99.90
20380;DHT22;10349;48.666;8.948;2024-03-22T03:23:23;4.80;99.90
20380;DHT22;10349;48.666;8.948;2024-03-22T03:25:49;4.80;99.90
20380;DHT22;10349;48.666;8.948;2024-03-22T03:28:15;4.80;99.90
20380;DHT22;10349;48.666;8.948;2024-03-22T03:30:40;4.80;99.90
20380;DHT22;10349;48.666;8.948;2024-03-22T03:33:06;4.80;99.90
20380;DHT22;10349;48.666;8.948;2024-03-22T03:35:31;4.90;99.90
20380;DHT22;10349;48.666;8.948;2024-03-22T03:37:57;4.90;99.90
20380;DHT22;10349;48.666;8.948;2024-03-22T03:40:23;4.90;99.90
20380;DHT22;10349;48.666;8.948;2024-03-22T03:42:50;4.80;99.90
20380;DHT22;10349;48.666;8.948;2024-03-22T03:45:16;4.70;99.90
20380;DHT22;10349;48.666;8.948;2024-03-22T03:47:42;4.70;99.90
20380;DHT22;10349;48.666;8.948;2024-03-22T03:50:07;4.70;99.90
20380;DHT22;10349;48.666;8.948;2024-03-22T03:52:33;4.70;99.90
20380;DHT22;10349;48.666;8.948;2024-03-22T03:54:59;4.70;99.90
20380;DHT22;10349;48.666;8.948;2024-03-22T03:57:25;4.80;99.90
20380;DHT22;10349;48.666;8.948;2024-03-22T03:59:51;4.80;99.90
20380;DHT22;10349;48.666;8.948;2024-03-22T04:02:17;4.80;99.90
20380;DHT22;10349;48.666;8.948;2024-03-22T04:04:42;4.90;99.90
20380;DHT22;10349;48.666;8.948;2024-03-22T04:07:08;4.90;99.90
20380;DHT22;10349;48.666;8.948;2024-03-22T04:09:34;4.90;99.90
20380;DHT22;10349;48.666;8.948;2024-03-22T04:11:59;4.90;99.90
20380;DHT22;10349;48.666;8.948;2024-03-22T04:14:26;4.90;99.90
20380;DHT22;10349;48.666;8.948;2024-03-22T04:16:51;4.90;99.90
20380;DHT22;10349;48.666;8.948;2024-03-22T04:19:20;4.80;99.90
20380;DHT22;10349;48.666;8.948;2024-03-22T04:21:45;4.90;99.90
20380;DHT22;10349;48.666;8.948;2024-03-22T04:24:11;4.80;99.90
20380;DHT22;10349;48.666;8.948;2024-03-22T04:26:36;4.90;99.90
20380;DHT22;10349;48.666;8.948;2024-03-22T04:29:02;4.90;99.90
20380;DHT22;10349;48.666;8.948;2024-03-22T04:31:28;4.90;99.90
20380;DHT22;10349;48.666;8.948;2024-03-22T04:33:53;5.00;99.90
20380;DHT22;10349;48.666;8.948;2024-03-22T04:36:19;5.00;99.90
20380;DHT22;10349;48.666;8.948;2024-03-22T04:38:45;5.00;99.90
20380;DHT22;10349;48.666;8.948;2024-03-22T04:41:10;5.00;99.90
20380;DHT22;10349;48.666;8.948;2024-03-22T04:43:36;5.10;99.90
20380;DHT22;10349;48.666;8.948;2024-03-22T04:46:01;5.10;99.90
20380;DHT22;10349;48.666;8.948;2024-03-22T04:48:27;5.20;99.90
20380;DHT22;10349;48.666;8.948;2024-03-22T04:50:53;5.10;99.90
20380;DHT22;10349;48.666;8.948;2024-03-22T04:53:19;5.10;99.90
20380;DHT22;10349;48.666;8.948;2024-03-22T04:55:49;5.10;99.90
20380;DHT22;10349;48.666;8.948;2024-03-22T04:58:16;5.10;99.90
20380;DHT22;10349;48.666;8.948;2024-03-22T05:00:43;5.10;99.90
20380;DHT22;10349;48.666;8.948;2024-03-22T05:03:08;5.10;99.90
20380;DHT22;10349;48.666;8.948;2024-03-22T05:05:34;5.20;99.90
20380;DHT22;10349;48.666;8.948;2024-03-22T05:08:01;5.10;99.90
20380;DHT22;10349;48.666;8.948;2024-03-22T05:10:27;5.20;99.90
20380;DHT22;10349;48.666;8.948;2024-03-22T05:12:54;5.30;99.90
20380;DHT22;10349;48.666;8.948;2024-03-22T05:15:20;5.30;99.90
20380;DHT22;10349;48.666;8.948;2024-03-22T05:17:46;5.30;99.90
20380;DHT22;10349;48.666;8.948;2024-03-22T05:20:11;5.30;99.90
20380;DHT22;10349;48.666;8.948;2024-03-22T05:22:38;5.30;99.90
20380;DHT22;10349;48.666;8.948;2024-03-22T05:25:04;5.20;99.90
20380;DHT22;10349;48.666;8.948;2024-03-22T05:27:31;5.30;99.90
20380;DHT22;10349;48.666;8.948;2024-03-22T05:29:58;5.30;99.90
20380;DHT22;10349;48.666;8.948;2024-03-22T05:32:24;5.30;99.90
20380;DHT22;10349;48.666;8.948;2024-03-22T05:34:50;5.30;99.90
20380;DHT22;10349;48.666;8.948;2024-03-22T05:37:17;5.40;99.90
20380;DHT22;10349;48.666;8.948;2024-03-22T05:39:43;5.30;99.90
20380;DHT22;10349;48.666;8.948;2024-03-22T05:42:09;5.30;99.90
20380;DHT22;10349;48.666;8.948;2024-03-22T05:44:34;5.30;99.90
20380;DHT22;10349;48.666;8.948;2024-03-22T05:47:00;5.20;99.90
20380;DHT22;10349;48.666;8.948;2024-03-22T05:49:26;5.20;99.90
20380;DHT22;10349;48.666;8.948;2024-03-22T05:51:52;5.20;99.90
20380;DHT22;10349;48.666;8.948;2024-03-22T05:54:17;5.20;99.90
20380;DHT22;10349;48.666;8.948;2024-03-22T05:56:43;5.20;99.90
20380;DHT22;10349;48.666;8.948;2024-03-22T05:59:08;5.20;99.90
20380;DHT22;10349;48.666;8.948;2024-03-22T06:01:35;5.30;99.90
20380;DHT22;10349;48.666;8.948;2024-03-22T06:04:01;5.20;99.90
20380;DHT22;10349;48.666;8.948;2024-03-22T06:06:27;5.30;99.90
20380;DHT22;10349;48.666;8.948;2024-03-22T06:08:52;5.30;99.90
20380;DHT22;10349;48.666;8.948;2024-03-22T06:11:20;5.30;99.90
20380;DHT22;10349;48.666;8.948;2024-03-22T06:13:47;5.40;99.90
20380;DHT22;10349;48.666;8.948;2024-03-22T06:16:13;5.40;99.90
20380;DHT22;10349;48.666;8.948;2024-03-22T06:18:39;5.40;99.90
20380;DHT22;10349;48.666;8.948;2024-03-22T06:21:05;5.40;99.90
20380;DHT22;10349;48.666;8.948;2024-03-22T06:23:31;5.40;99.90
20380;DHT22;10349;48.666;8.948;2024-03-22T06:25:56;5.50;99.90
20380;DHT22;10349;48.666;8.948;2024-03-22T06:28:23;5.50;99.90
20380;DHT22;10349;48.666;8.948;2024-03-22T06:30:49;5.50;99.90
20380;DHT22;10349;48.666;8.948;2024-03-22T06:33:14;5.60;99.90
20380;DHT22;10349;48.666;8.948;2024-03-22T06:35:43;5.60;99.90
20380;DHT22;10349;48.666;8.948;2024-03-22T06:38:09;5.60;99.90
20380;DHT22;10349;48.666;8.948;2024-03-22T06:40:35;5.70;99.90
20380;DHT22;10349;48.666;8.948;2024-03-22T06:43:01;5.70;99.90
20380;DHT22;10349;48.666;8.948;2024-03-22T06:45:26;5.70;99.90
20380;DHT22;10349;48.666;8.948;2024-03-22T06:47:52;5.80;99.90
20380;DHT22;10349;48.666;8.948;2024-03-22T06:50:18;5.80;99.90
20380;DHT22;10349;48.666;8.948;2024-03-22T06:52:44;5.90;99.90
20380;DHT22;10349;48.666;8.948;2024-03-22T06:55:10;5.90;99.90
20380;DHT22;10349;48.666;8.948;2024-03-22T06:57:37;6.00;99.90
20380;DHT22;10349;48.666;8.948;2024-03-22T07:00:03;6.10;99.90
20380;DHT22;10349;48.666;8.948;2024-03-22T07:02:29;6.10;99.90
20380;DHT22;10349;48.666;8.948;2024-03-22T07:04:55;6.20;99.90
20380;DHT22;10349;48.666;8.948;2024-03-22T07:07:20;6.20;99.90
20380;DHT22;10349;48.666;8.948;2024-03-22T07:09:46;6.30;99.90
20380;DHT22;10349;48.666;8.948;2024-03-22T07:12:13;6.30;99.90
20380;DHT22;10349;48.666;8.948;2024-03-22T07:14:39;6.30;99.90
20380;DHT22;10349;48.666;8.948;2024-03-22T07:17:04;6.40;99.90
20380;DHT22;10349;48.666;8.948;2024-03-22T07:19:31;6.60;99.90
20380;DHT22;10349;48.666;8.948;2024-03-22T07:21:57;6.70;99.90
20380;DHT22;10349;48.666;8.948;2024-03-22T07:24:25;6.80;99.90
20380;DHT22;10349;48.666;8.948;2024-03-22T07:26:51;6.90;99.90
20380;DHT22;10349;48.666;8.948;2024-03-22T07:29:17;6.90;99.90
20380;DHT22;10349;48.666;8.948;2024-03-22T07:31:43;7.00;99.90
20380;DHT22;10349;48.666;8.948;2024-03-22T07:34:08;7.20;99.90
20380;DHT22;10349;48.666;8.948;2024-03-22T07:36:38;7.30;99.90
20380;DHT22;10349;48.666;8.948;2024-03-22T07:39:04;7.30;99.90
20380;DHT22;10349;48.666;8.948;2024-03-22T07:41:32;7.60;99.90
20380;DHT22;10349;48.666;8.948;2024-03-22T07:43:59;7.70;99.90
20380;DHT22;10349;48.666;8.948;2024-03-22T07:46:26;7.80;99.90
20380;DHT22;10349;48.666;8.948;2024-03-22T07:48:51;7.90;99.90
20380;DHT22;10349;48.666;8.948;2024-03-22T07:51:17;8.10;99.90
20380;DHT22;10349;48.666;8.948;2024-03-22T07:53:43;8.20;99.90
20380;DHT22;10349;48.666;8.948;2024-03-22T07:56:09;8.40;99.90
20380;DHT22;10349;48.666;8.948;2024-03-22T07:58:34;8.50;99.90
20380;DHT22;10349;48.666;8.948;2024-03-22T08:01:00;8.70;99.90
20380;DHT22;10349;48.666;8.948;2024-03-22T08:03:26;8.80;99.90
20380;DHT22;10349;48.666;8.948;2024-03-22T08:05:51;9.00;99.90
20380;DHT22;10349;48.666;8.948;2024-03-22T08:08:18;9.10;99.90
20380;DHT22;10349;48.666;8.948;2024-03-22T08:10:43;9.30;99.90
20380;DHT22;10349;48.666;8.948;2024-03-22T08:13:09;9.50;99.90
20380;DHT22;10349;48.666;8.948;2024-03-22T08:15:35;9.60;99.90
20380;DHT22;10349;48.666;8.948;2024-03-22T08:18:01;9.80;99.90
20380;DHT22;10349;48.666;8.948;2024-03-22T08:20:28;9.90;99.90
20380;DHT22;10349;48.666;8.948;2024-03-22T08:22:54;10.10;99.90
20380;DHT22;10349;48.666;8.948;2024-03-22T08:25:19;10.20;99.90
20380;DHT22;10349;48.666;8.948;2024-03-22T08:27:46;10.30;99.90
20380;DHT22;10349;48.666;8.948;2024-03-22T08:30:13;10.50;99.90
20380;DHT22;10349;48.666;8.948;2024-03-22T08:32:39;10.60;99.90
20380;DHT22;10349;48.666;8.948;2024-03-22T08:35:05;10.80;99.90
20380;DHT22;10349;48.666;8.948;2024-03-22T08:37:32;10.80;99.90
20380;DHT22;10349;48.666;8.948;2024-03-22T08:39:58;10.90;99.90
20380;DHT22;10349;48.666;8.948;2024-03-22T08:42:24;11.00;99.90
20380;DHT22;10349;48.666;8.948;2024-03-22T08:44:50;11.00;99.90
20380;DHT22;10349;48.666;8.948;2024-03-22T08:47:15;11.10;99.90
20380;DHT22;10349;48.666;8.948;2024-03-22T08:49:41;11.10;99.90
20380;DHT22;10349;48.666;8.948;2024-03-22T08:52:11;11.20;99.90
20380;DHT22;10349;48.666;8.948;2024-03-22T08:54:37;11.30;99.90
20380;DHT22;10349;48.666;8.948;2024-03-22T08:57:02;11.40;99.90
20380;DHT22;10349;48.666;8.948;2024-03-22T08:59:28;11.50;99.90
20380;DHT22;10349;48.666;8.948;2024-03-22T09:01:53;11.70;99.90
20380;DHT22;10349;48.666;8.948;2024-03-22T09:04:19;11.80;99.90
20380;DHT22;10349;48.666;8.948;2024-03-22T09:06:45;11.90;99.90
20380;DHT22;10349;48.666;8.948;2024-03-22T09:09:11;12.10;99.90
20380;DHT22;10349;48.666;8.948;2024-03-22T09:11:37;12.30;99.90
20380;DHT22;10349;48.666;8.948;2024-03-22T09:14:02;12.40;99.90
20380;DHT22;10349;48.666;8.948;2024-03-22T09:16:28;12.60;99.90
20380;DHT22;10349;48.666;8.948;2024-03-22T09:18:54;12.80;99.90
20380;DHT22;10349;48.666;8.948;2024-03-22T09:21:19;13.00;99.90
20380;DHT22;10349;48.666;8.948;2024-03-22T09:23:45;13.20;99.90
20380;DHT22;10349;48.666;8.948;2024-03-22T09:26:11;13.40;99.90
20380;DHT22;10349;48.666;8.948;2024-03-22T09:28:36;13.70;99.90
20380;DHT22;10349;48.666;8.948;2024-03-22T09:31:08;13.80;99.90
20380;DHT22;10349;48.666;8.948;2024-03-22T09:33:34;13.80;99.90
20380;DHT22;10349;48.666;8.948;2024-03-22T09:36:01;13.90;99.90
20380;DHT22;10349;48.666;8.948;2024-03-22T09:38:27;14.00;99.90
20380;DHT22;10349;48.666;8.948;2024-03-22T09:40:53;14.10;99.90
20380;DHT22;10349;48.666;8.948;2024-03-22T09:43:20;14.10;99.90
20380;DHT22;10349;48.666;8.948;2024-03-22T09:45:47;14.10;99.90
20380;DHT22;10349;48.666;8.948;2024-03-22T09:48:16;14.10;99.90
20380;DHT22;10349;48.666;8.948;2024-03-22T09:50:43;14.00;99.90
20380;DHT22;10349;48.666;8.948;2024-03-22T09:53:10;14.10;99.90
20380;DHT22;10349;48.666;8.948;2024-03-22T09:55:37;14.10;99.90
20380;DHT22;10349;48.666;8.948;2024-03-22T09:58:03;14.20;99.90
20380;DHT22;10349;48.666;8.948;2024-03-22T10:00:30;14.30;99.90
20380;DHT22;10349;48.666;8.948;2024-03-22T10:02:56;14.40;99.90
20380;DHT22;10349;48.666;8.948;2024-03-22T10:05:22;14.50;99.90
20380;DHT22;10349;48.666;8.948;2024-03-22T10:07:49;14.60;99.90
20380;DHT22;10349;48.666;8.948;2024-03-22T10:10:15;14.60;99.90
20380;DHT22;10349;48.666;8.948;2024-03-22T10:12:41;14.70;99.90
20380;DHT22;10349;48.666;8.948;2024-03-22T10:15:06;14.70;99.90
20380;DHT22;10349;48.666;8.948;2024-03-22T10:17:37;14.70;99.90
20380;DHT22;10349;48.666;8.948;2024-03-22T10:20:03;14.70;99.90
20380;DHT22;10349;48.666;8.948;2024-03-22T10:22:29;14.70;99.90
20380;DHT22;10349;48.666;8.948;2024-03-22T10:24:55;14.80;99.90
20380;DHT22;10349;48.666;8.948;2024-03-22T10:27:27;14.90;99.90
20380;DHT22;10349;48.666;8.948;2024-03-22T10:29:52;15.00;99.90
20380;DHT22;10349;48.666;8.948;2024-03-22T10:32:18;15.20;99.90
20380;DHT22;10349;48.666;8.948;2024-03-22T10:34:45;15.30;99.90
20380;DHT22;10349;48.666;8.948;2024-03-22T10:37:14;15.30;99.90
20380;DHT22;10349;48.666;8.948;2024-03-22T10:39:42;15.30;99.90
20380;DHT22;10349;48.666;8.948;2024-03-22T10:42:11;15.50;99.90
20380;DHT22;10349;48.666;8.948;2024-03-22T10:44:38;15.50;99.90
20380;DHT22;10349;48.666;8.948;2024-03-22T10:47:04;15.50;99.90
20380;DHT22;10349;48.666;8.948;2024-03-22T10:49:37;15.50;99.90
20380;DHT22;10349;48.666;8.948;2024-03-22T10:52:03;15.60;99.90
20380;DHT22;10349;48.666;8.948;2024-03-22T10:54:35;15.60;99.90
20380;DHT22;10349;48.666;8.948;2024-03-22T10:57:01;15.70;99.90
20380;DHT22;10349;48.666;8.948;2024-03-22T10:59:33;15.80;99.90
20380;DHT22;10349;48.666;8.948;2024-03-22T11:02:03;15.80;99.90
20380;DHT22;10349;48.666;8.948;2024-03-22T11:04:30;15.80;99.90
20380;DHT22;10349;48.666;8.948;2024-03-22T11:06:57;15.80;99.90
20380;DHT22;10349;48.666;8.948;2024-03-22T11:09:26;15.90;99.90
20380;DHT22;10349;48.666;8.948;2024-03-22T11:11:55;15.90;99.90
20380;DHT22;10349;48.666;8.948;2024-03-22T11:14:26;16.00;99.90
20380;DHT22;10349;48.666;8.948;2024-03-22T11:16:53;16.20;99.90
20380;DHT22;10349;48.666;8.948;2024-03-22T11:19:19;16.30;99.90
20380;DHT22;10349;48.666;8.948;2024-03-22T11:21:44;16.50;99.90
20380;DHT22;10349;48.666;8.948;2024-03-22T11:24:10;16.60;99.90
20380;DHT22;10349;48.666;8.948;2024-03-22T11:26:37;16.70;99.90
20380;DHT22;10349;48.666;8.948;2024-03-22T11:29:03;16.90;99.90
20380;DHT22;10349;48.666;8.948;2024-03-22T11:31:29;17.10;99.90
20380;DHT22;10349;48.666;8.948;2024-03-22T11:33:54;17.20;99.90
20380;DHT22;10349;48.666;8.948;2024-03-22T11:36:21;17.50;99.90
20380;DHT22;10349;48.666;8.948;2024-03-22T11:38:46;17.60;99.90
20380;DHT22;10349;48.666;8.948;2024-03-22T11:41:17;17.60;99.90
20380;DHT22;10349;48.666;8.948;2024-03-22T11:43:45;17.60;99.90
20380;DHT22;10349;48.666;8.948;2024-03-22T11:46:11;17.50;99.90
20380;DHT22;10349;48.666;8.948;2024-03-22T11:48:40;17.60;99.90
20380;DHT22;10349;48.666;8.948;2024-03-22T11:51:07;17.70;99.90
20380;DHT22;10349;48.666;8.948;2024-03-22T11:53:35;17.80;99.90
20380;DHT22;10349;48.666;8.948;2024-03-22T11:56:01;17.90;99.90
20380;DHT22;10349;48.666;8.948;2024-03-22T11:58:29;17.90;99.90
20380;DHT22;10349;48.666;8.948;2024-03-22T12:00:56;17.90;99.90
20380;DHT22;10349;48.666;8.948;2024-03-22T12:03:23;17.90;99.90
20380;DHT22;10349;48.666;8.948;2024-03-22T12:05:48;17.90;99.90
20380;DHT22;10349;48.666;8.948;2024-03-22T12:08:17;17.80;99.90
20380;DHT22;10349;48.666;8.948;2024-03-22T12:10:43;18.00;99.90
20380;DHT22;10349;48.666;8.948;2024-03-22T12:13:09;18.10;99.90
20380;DHT22;10349;48.666;8.948;2024-03-22T12:15:35;18.20;99.90
20380;DHT22;10349;48.666;8.948;2024-03-22T12:18:01;18.30;99.90
20380;DHT22;10349;48.666;8.948;2024-03-22T12:20:26;18.30;99.90
20380;DHT22;10349;48.666;8.948;2024-03-22T12:22:52;18.20;99.90
20380;DHT22;10349;48.666;8.948;2024-03-22T12:25:18;18.10;99.90
20380;DHT22;10349;48.666;8.948;2024-03-22T12:27:43;18.20;99.90
20380;DHT22;10349;48.666;8.948;2024-03-22T12:30:11;18.30;99.90
20380;DHT22;10349;48.666;8.948;2024-03-22T12:32:37;18.40;99.90
20380;DHT22;10349;48.666;8.948;2024-03-22T12:35:03;18.50;99.90
20380;DHT22;10349;48.666;8.948;2024-03-22T12:37:29;18.50;99.90
20380;DHT22;10349;48.666;8.948;2024-03-22T12:39:55;18.50;99.90
20380;DHT22;10349;48.666;8.948;2024-03-22T12:42:21;18.40;99.90
20380;DHT22;10349;48.666;8.948;2024-03-22T12:44:47;18.30;99.90
20380;DHT22;10349;48.666;8.948;2024-03-22T12:47:12;18.40;99.90
20380;DHT22;10349;48.666;8.948;2024-03-22T12:49:38;18.40;99.90
20380;DHT22;10349;48.666;8.948;2024-03-22T12:52:04;18.40;99.90
20380;DHT22;10349;48.666;8.948;2024-03-22T12:54:29;18.40;99.90
20380;DHT22;10349;48.666;8.948;2024-03-22T12:56:55;18.40;99.90
20380;DHT22;10349;48.666;8.948;2024-03-22T12:59:21;18.40;99.90
20380;DHT22;10349;48.666;8.948;2024-03-22T13:01:46;18.40;99.90
20380;DHT22;10349;48.666;8.948;2024-03-22T13:04:13;18.50;99.90
20380;DHT22;10349;48.666;8.948;2024-03-22T13:06:38;18.50;99.90
20380;DHT22;10349;48.666;8.948;2024-03-22T13:09:04;18.70;99.90
20380;DHT22;10349;48.666;8.948;2024-03-22T13:11:31;18.70;99.90
20380;DHT22;10349;48.666;8.948;2024-03-22T13:13:57;18.80;99.90
20380;DHT22;10349;48.666;8.948;2024-03-22T13:16:23;18.80;99.90
20380;DHT22;10349;48.666;8.948;2024-03-22T13:18:49;18.90;99.90
20380;DHT22;10349;48.666;8.948;2024-03-22T13:21:14;18.90;99.90
20380;DHT22;10349;48.666;8.948;2024-03-22T13:23:40;18.80;99.90
20380;DHT22;10349;48.666;8.948;2024-03-22T13:26:05;18.70;99.90
20380;DHT22;10349;48.666;8.948;2024-03-22T13:28:32;18.70;99.90
20380;DHT22;10349;48.666;8.948;2024-03-22T13:31:03;18.80;99.90
20380;DHT22;10349;48.666;8.948;2024-03-22T13:33:30;19.00;99.90
20380;DHT22;10349;48.666;8.948;2024-03-22T13:35:56;19.10;99.90
20380;DHT22;10349;48.666;8.948;2024-03-22T13:38:21;19.30;99.90
20380;DHT22;10349;48.666;8.948;2024-03-22T13:40:57;19.30;99.90
20380;DHT22;10349;48.666;8.948;2024-03-22T13:43:23;19.40;99.90
20380;DHT22;10349;48.666;8.948;2024-03-22T13:45:53;19.50;99.90
20380;DHT22;10349;48.666;8.948;2024-03-22T13:48:20;19.70;99.90
20380;DHT22;10349;48.666;8.948;2024-03-22T13:50:54;19.70;99.90
20380;DHT22;10349;48.666;8.948;2024-03-22T13:53:20;19.70;99.90
20380;DHT22;10349;48.666;8.948;2024-03-22T13:55:49;19.80;99.90
20380;DHT22;10349;48.666;8.948;2024-03-22T13:58:15;19.80;99.90
20380;DHT22;10349;48.666;8.948;2024-03-22T14:00:40;19.70;99.90
20380;DHT22;10349;48.666;8.948;2024-03-22T14:03:06;19.50;99.90
20380;DHT22;10349;48.666;8.948;2024-03-22T14:05:32;19.40;99.90
20380;DHT22;10349;48.666;8.948;2024-03-22T14:08:00;19.30;99.90
20380;DHT22;10349;48.666;8.948;2024-03-22T14:10:26;19.30;99.90
20380;DHT22;10349;48.666;8.948;2024-03-22T14:12:57;19.20;99.90
20380;DHT22;10349;48.666;8.948;2024-03-22T14:15:22;19.20;99.90
20380;DHT22;10349;48.666;8.948;2024-03-22T14:17:51;19.20;99.90
20380;DHT22;10349;48.666;8.948;2024-03-22T14:20:16;19.20;99.90
20380;DHT22;10349;48.666;8.948;2024-03-22T14:22:42;19.10;99.90
20380;DHT22;10349;48.666;8.948;2024-03-22T14:25:08;19.20;99.90
20380;DHT22;10349;48.666;8.948;2024-03-22T14:27:35;19.10;99.90
20380;DHT22;10349;48.666;8.948;2024-03-22T14:30:02;19.00;99.90
20380;DHT22;10349;48.666;8.948;2024-03-22T14:32:32;18.80;99.90
20380;DHT22;10349;48.666;8.948;2024-03-22T14:34:57;18.90;99.90
20380;DHT22;10349;48.666;8.948;2024-03-22T14:37:23;18.80;99.90
20380;DHT22;10349;48.666;8.948;2024-03-22T14:39:49;18.70;99.90
20380;DHT22;10349;48.666;8.948;2024-03-22T14:42:14;18.70;99.90
20380;DHT22;10349;48.666;8.948;2024-03-22T14:44:40;18.60;99.90
20380;DHT22;10349;48.666;8.948;2024-03-22T14:47:06;18.50;99.90
20380;DHT22;10349;48.666;8.948;2024-03-22T14:49:32;18.40;99.90
20380;DHT22;10349;48.666;8.948;2024-03-22T14:51:57;18.40;99.90
20380;DHT22;10349;48.666;8.948;2024-03-22T14:54:23;18.40;99.90
20380;DHT22;10349;48.666;8.948;2024-03-22T14:56:49;18.50;99.90
20380;DHT22;10349;48.666;8.948;2024-03-22T14:59:14;18.40;99.90
20380;DHT22;10349;48.666;8.948;2024-03-22T15:01:40;18.50;99.90
20380;DHT22;10349;48.666;8.948;2024-03-22T15:04:05;18.50;99.90
20380;DHT22;10349;48.666;8.948;2024-03-22T15:06:32;18.50;99.90
20380;DHT22;10349;48.666;8.948;2024-03-22T15:08:57;18.60;99.90
20380;DHT22;10349;48.666;8.948;2024-03-22T15:11:24;18.60;99.90
20380;DHT22;10349;48.666;8.948;2024-03-22T15:13:50;18.60;99.90
20380;DHT22;10349;48.666;8.948;2024-03-22T15:16:15;18.60;99.90
20380;DHT22;10349;48.666;8.948;2024-03-22T15:18:41;18.60;99.90
20380;DHT22;10349;48.666;8.948;2024-03-22T15:21:07;18.50;99.90
20380;DHT22;10349;48.666;8.948;2024-03-22T15:23:34;18.30;99.90
20380;DHT22;10349;48.666;8.948;2024-03-22T15:26:00;18.20;99.90
20380;DHT22;10349;48.666;8.948;2024-03-22T15:28:25;18.20;99.90
20380;DHT22;10349;48.666;8.948;2024-03-22T15:30:52;18.20;99.90
20380;DHT22;10349;48.666;8.948;2024-03-22T15:33:17;18.20;99.90